sensor_id;sensor_type;location;lat;lon;timestamp;temperature;humidity
38550;DHT22;24322;52.004;5.948;2022-09-27T00:00:43;10.60;99.90
38550;DHT22;24322;52.004;5.948;2022-09-27T00:03:09;10.50;99.90
38550;DHT22;24322;52.004;5.948;2022-09-27T00:05:35;10.50;99.90
38550;DHT22;24322;52.004;5.948;2022-09-27T00:08:00;10.50;99.90
38550;DHT22;24322;52.004;5.948;2022-09-27T00:10:26;10.50;99.90
38550;DHT22;24322;52.004;5.948;2022-09-27T00:12:53;10.50;99.90
38550;DHT22;24322;52.004;5.948;2022-09-27T00:15:18;10.50;99.90
38550;DHT22;24322;52.004;5.948;2022-09-27T00:17:44;10.50;99.90
38550;DHT22;24322;52.004;5.948;2022-09-27T00:20:10;10.50;99.90
38550;DHT22;24322;52.004;5.948;2022-09-27T00:22:36;10.50;99.90
38550;DHT22;24322;52.004;5.948;2022-09-27T00:25:01;10.40;99.90
38550;DHT22;24322;52.004;5.948;2022-09-27T00:27:30;10.40;99.90
38550;DHT22;24322;52.004;5.948;2022-09-27T00:29:55;10.40;99.90
38550;DHT22;24322;52.004;5.948;2022-09-27T00:32:21;10.40;99.90
38550;DHT22;24322;52.004;5.948;2022-09-27T00:34:46;10.40;99.90
38550;DHT22;24322;52.004;5.948;2022-09-27T00:37:12;10.40;99.90
38550;DHT22;24322;52.004;5.948;2022-09-27T00:39:37;10.30;99.90
38550;DHT22;24322;52.004;5.948;2022-09-27T00:42:09;10.30;99.90
38550;DHT22;24322;52.004;5.948;2022-09-27T00:49:33;10.30;99.90
38550;DHT22;24322;52.004;5.948;2022-09-27T00:52:04;10.30;99.90
38550;DHT22;24322;52.004;5.948;2022-09-27T00:54:32;10.30;99.90
38550;DHT22;24322;52.004;5.948;2022-09-27T00:56:59;10.30;99.90
38550;DHT22;24322;52.004;5.948;2022-09-27T01:01:53;10.30;99.90
38550;DHT22;24322;52.004;5.948;2022-09-27T01:04:20;10.40;99.90
38550;DHT22;24322;52.004;5.948;2022-09-27T01:06:48;10.40;99.90
38550;DHT22;24322;52.004;5.948;2022-09-27T01:09:13;10.40;99.90
38550;DHT22;24322;52.004;5.948;2022-09-27T01:16:47;10.40;99.90
38550;DHT22;24322;52.004;5.948;2022-09-27T01:19:24;10.40;99.90
38550;DHT22;24322;52.004;5.948;2022-09-27T01:32:11;10.50;99.90
38550;DHT22;24322;52.004;5.948;2022-09-27T01:37:37;10.50;99.90
38550;DHT22;24322;52.004;5.948;2022-09-27T01:42:57;10.40;99.90
38550;DHT22;24322;52.004;5.948;2022-09-27T01:45:29;10.30;99.90
38550;DHT22;24322;52.004;5.948;2022-09-27T01:48:00;10.30;99.90
38550;DHT22;24322;52.004;5.948;2022-09-27T01:50:32;10.30;99.90
38550;DHT22;24322;52.004;5.948;2022-09-27T01:53:04;10.30;99.90
38550;DHT22;24322;52.004;5.948;2022-09-27T01:55:32;10.20;99.90
38550;DHT22;24322;52.004;5.948;2022-09-27T01:58:05;10.20;99.90
38550;DHT22;24322;52.004;5.948;2022-09-27T02:00:33;10.10;99.90
38550;DHT22;24322;52.004;5.948;2022-09-27T02:03:02;10.10;99.90
38550;DHT22;24322;52.004;5.948;2022-09-27T02:05:31;10.10;99.90
38550;DHT22;24322;52.004;5.948;2022-09-27T02:07:59;10.00;99.90
38550;DHT22;24322;52.004;5.948;2022-09-27T02:10:28;9.90;99.90
38550;DHT22;24322;52.004;5.948;2022-09-27T02:13:04;9.90;99.90
38550;DHT22;24322;52.004;5.948;2022-09-27T02:15:32;9.90;99.90
38550;DHT22;24322;52.004;5.948;2022-09-27T02:18:06;9.80;99.90
38550;DHT22;24322;52.004;5.948;2022-09-27T02:23:10;9.70;99.90
38550;DHT22;24322;52.004;5.948;2022-09-27T02:25:40;9.70;99.90
38550;DHT22;24322;52.004;5.948;2022-09-27T02:30:32;9.60;99.90
38550;DHT22;24322;52.004;5.948;2022-09-27T02:32:58;9.60;99.90
38550;DHT22;24322;52.004;5.948;2022-09-27T02:35:25;9.50;99.90
38550;DHT22;24322;52.004;5.948;2022-09-27T02:37:51;9.50;99.90
38550;DHT22;24322;52.004;5.948;2022-09-27T02:40:17;9.50;99.90
38550;DHT22;24322;52.004;5.948;2022-09-27T02:42:44;9.40;99.90
38550;DHT22;24322;52.004;5.948;2022-09-27T02:45:10;9.40;99.90
38550;DHT22;24322;52.004;5.948;2022-09-27T02:47:40;9.40;99.90
38550;DHT22;24322;52.004;5.948;2022-09-27T02:58:02;9.40;99.90
38550;DHT22;24322;52.004;5.948;2022-09-27T03:00:34;9.40;99.90
38550;DHT22;24322;52.004;5.948;2022-09-27T03:03:08;9.40;99.90
38550;DHT22;24322;52.004;5.948;2022-09-27T03:05:40;9.40;99.90
38550;DHT22;24322;52.004;5.948;2022-09-27T03:08:06;9.40;99.90
38550;DHT22;24322;52.004;5.948;2022-09-27T03:10:32;9.40;99.90
38550;DHT22;24322;52.004;5.948;2022-09-27T03:12:58;9.40;99.90
38550;DHT22;24322;52.004;5.948;2022-09-27T03:15:23;9.30;99.90
38550;DHT22;24322;52.004;5.948;2022-09-27T03:17:49;9.30;99.90
38550;DHT22;24322;52.004;5.948;2022-09-27T03:20:14;9.30;99.90
38550;DHT22;24322;52.004;5.948;2022-09-27T03:22:40;9.30;99.90
38550;DHT22;24322;52.004;5.948;2022-09-27T03:25:06;9.30;99.90
38550;DHT22;24322;52.004;5.948;2022-09-27T03:27:32;9.30;99.90
38550;DHT22;24322;52.004;5.948;2022-09-27T03:29:57;9.30;99.90
38550;DHT22;24322;52.004;5.948;2022-09-27T03:32:24;9.30;99.90
38550;DHT22;24322;52.004;5.948;2022-09-27T03:34:49;9.30;99.90
38550;DHT22;24322;52.004;5.948;2022-09-27T03:37:15;9.30;99.90
38550;DHT22;24322;52.004;5.948;2022-09-27T03:39:41;9.30;99.90
38550;DHT22;24322;52.004;5.948;2022-09-27T03:42:06;9.30;99.90
38550;DHT22;24322;52.004;5.948;2022-09-27T03:44:32;9.30;99.90
38550;DHT22;24322;52.004;5.948;2022-09-27T03:46:57;9.30;99.90
38550;DHT22;24322;52.004;5.948;2022-09-27T03:49:23;9.30;99.90
38550;DHT22;24322;52.004;5.948;2022-09-27T03:51:48;9.30;99.90
38550;DHT22;24322;52.004;5.948;2022-09-27T03:54:14;9.30;99.90
38550;DHT22;24322;52.004;5.948;2022-09-27T03:56:39;9.20;99.90
38550;DHT22;24322;52.004;5.948;2022-09-27T03:59:05;9.20;99.90
38550;DHT22;24322;52.004;5.948;2022-09-27T04:01:30;9.20;99.90
38550;DHT22;24322;52.004;5.948;2022-09-27T04:03:56;9.20;99.90
38550;DHT22;24322;52.004;5.948;2022-09-27T04:06:21;9.10;99.90
38550;DHT22;24322;52.004;5.948;2022-09-27T04:08:48;9.20;99.90
38550;DHT22;24322;52.004;5.948;2022-09-27T04:11:13;9.10;99.90
38550;DHT22;24322;52.004;5.948;2022-09-27T04:13:39;9.10;99.90
38550;DHT22;24322;52.004;5.948;2022-09-27T04:16:05;9.10;99.90
38550;DHT22;24322;52.004;5.948;2022-09-27T04:18:30;9.10;99.90
38550;DHT22;24322;52.004;5.948;2022-09-27T04:20:56;9.10;99.90
38550;DHT22;24322;52.004;5.948;2022-09-27T04:23:21;9.10;99.90
38550;DHT22;24322;52.004;5.948;2022-09-27T04:25:48;9.20;99.90
38550;DHT22;24322;52.004;5.948;2022-09-27T04:28:13;9.20;99.90
38550;DHT22;24322;52.004;5.948;2022-09-27T04:30:39;9.30;99.90
38550;DHT22;24322;52.004;5.948;2022-09-27T04:33:05;9.30;99.90
38550;DHT22;24322;52.004;5.948;2022-09-27T04:35:31;9.30;99.90
38550;DHT22;24322;52.004;5.948;2022-09-27T04:38:14;9.40;99.90
38550;DHT22;24322;52.004;5.948;2022-09-27T04:40:40;9.50;99.90
38550;DHT22;24322;52.004;5.948;2022-09-27T04:43:06;9.40;99.90
38550;DHT22;24322;52.004;5.948;2022-09-27T04:45:32;9.40;99.90
38550;DHT22;24322;52.004;5.948;2022-09-27T04:47:57;9.40;99.90
38550;DHT22;24322;52.004;5.948;2022-09-27T04:50:23;9.40;99.90
38550;DHT22;24322;52.004;5.948;2022-09-27T04:52:52;9.40;99.90
38550;DHT22;24322;52.004;5.948;2022-09-27T04:55:18;9.50;99.90
38550;DHT22;24322;52.004;5.948;2022-09-27T04:57:44;9.40;99.90
38550;DHT22;24322;52.004;5.948;2022-09-27T05:00:09;9.40;99.90
38550;DHT22;24322;52.004;5.948;2022-09-27T05:02:35;9.30;99.90
38550;DHT22;24322;52.004;5.948;2022-09-27T05:05:01;9.30;99.90
38550;DHT22;24322;52.004;5.948;2022-09-27T05:07:26;9.30;99.90
38550;DHT22;24322;52.004;5.948;2022-09-27T05:09:52;9.20;99.90
38550;DHT22;24322;52.004;5.948;2022-09-27T05:12:18;9.20;99.90
38550;DHT22;24322;52.004;5.948;2022-09-27T05:14:43;9.20;99.90
38550;DHT22;24322;52.004;5.948;2022-09-27T05:17:09;9.20;99.90
38550;DHT22;24322;52.004;5.948;2022-09-27T05:19:34;9.20;99.90
38550;DHT22;24322;52.004;5.948;2022-09-27T05:22:00;9.10;99.90
38550;DHT22;24322;52.004;5.948;2022-09-27T05:24:26;9.20;99.90
38550;DHT22;24322;52.004;5.948;2022-09-27T05:26:57;9.20;99.90
38550;DHT22;24322;52.004;5.948;2022-09-27T05:29:23;9.10;99.90
38550;DHT22;24322;52.004;5.948;2022-09-27T05:31:49;9.10;99.90
38550;DHT22;24322;52.004;5.948;2022-09-27T05:34:15;9.10;99.90
38550;DHT22;24322;52.004;5.948;2022-09-27T05:36:40;9.10;99.90
38550;DHT22;24322;52.004;5.948;2022-09-27T05:39:06;9.10;99.90
38550;DHT22;24322;52.004;5.948;2022-09-27T05:41:32;9.10;99.90
38550;DHT22;24322;52.004;5.948;2022-09-27T05:43:57;9.10;99.90
38550;DHT22;24322;52.004;5.948;2022-09-27T05:46:23;9.10;99.90
38550;DHT22;24322;52.004;5.948;2022-09-27T05:48:49;9.10;99.90
38550;DHT22;24322;52.004;5.948;2022-09-27T05:51:14;9.00;99.90
38550;DHT22;24322;52.004;5.948;2022-09-27T05:53:40;9.00;99.90
38550;DHT22;24322;52.004;5.948;2022-09-27T05:56:05;9.00;99.90
38550;DHT22;24322;52.004;5.948;2022-09-27T05:58:31;9.00;99.90
38550;DHT22;24322;52.004;5.948;2022-09-27T06:00:57;9.00;99.90
38550;DHT22;24322;52.004;5.948;2022-09-27T06:03:22;9.00;99.90
38550;DHT22;24322;52.004;5.948;2022-09-27T06:05:48;9.00;99.90
38550;DHT22;24322;52.004;5.948;2022-09-27T06:08:13;9.00;99.90
38550;DHT22;24322;52.004;5.948;2022-09-27T06:10:39;9.00;99.90
38550;DHT22;24322;52.004;5.948;2022-09-27T06:13:11;9.00;99.90
38550;DHT22;24322;52.004;5.948;2022-09-27T06:15:38;9.10;99.90
38550;DHT22;24322;52.004;5.948;2022-09-27T06:18:05;9.00;99.90
38550;DHT22;24322;52.004;5.948;2022-09-27T06:20:31;9.10;99.90
38550;DHT22;24322;52.004;5.948;2022-09-27T06:23:10;9.10;99.90
38550;DHT22;24322;52.004;5.948;2022-09-27T06:25:36;9.10;99.90
38550;DHT22;24322;52.004;5.948;2022-09-27T06:28:02;9.10;99.90
38550;DHT22;24322;52.004;5.948;2022-09-27T06:30:28;9.10;99.90
38550;DHT22;24322;52.004;5.948;2022-09-27T06:32:57;9.20;99.90
38550;DHT22;24322;52.004;5.948;2022-09-27T06:35:23;9.30;99.90
38550;DHT22;24322;52.004;5.948;2022-09-27T06:37:49;9.30;99.90
38550;DHT22;24322;52.004;5.948;2022-09-27T06:40:15;9.40;99.90
38550;DHT22;24322;52.004;5.948;2022-09-27T06:42:40;9.60;99.90
38550;DHT22;24322;52.004;5.948;2022-09-27T06:45:06;9.60;99.90
38550;DHT22;24322;52.004;5.948;2022-09-27T06:47:35;9.70;99.90
38550;DHT22;24322;52.004;5.948;2022-09-27T06:50:01;9.80;99.90
38550;DHT22;24322;52.004;5.948;2022-09-27T06:52:29;9.70;99.90
38550;DHT22;24322;52.004;5.948;2022-09-27T06:54:55;9.80;99.90
38550;DHT22;24322;52.004;5.948;2022-09-27T06:57:20;9.80;99.90
38550;DHT22;24322;52.004;5.948;2022-09-27T07:00:08;9.80;99.90
38550;DHT22;24322;52.004;5.948;2022-09-27T07:02:53;9.90;99.90
38550;DHT22;24322;52.004;5.948;2022-09-27T07:05:20;9.90;99.90
38550;DHT22;24322;52.004;5.948;2022-09-27T07:07:46;10.00;99.90
38550;DHT22;24322;52.004;5.948;2022-09-27T07:10:13;10.10;99.90
38550;DHT22;24322;52.004;5.948;2022-09-27T07:12:38;10.20;99.90
38550;DHT22;24322;52.004;5.948;2022-09-27T07:15:04;10.20;99.90
38550;DHT22;24322;52.004;5.948;2022-09-27T07:17:30;10.20;99.90
38550;DHT22;24322;52.004;5.948;2022-09-27T07:19:55;10.20;99.90
38550;DHT22;24322;52.004;5.948;2022-09-27T07:22:21;10.20;99.90
38550;DHT22;24322;52.004;5.948;2022-09-27T07:24:46;10.20;99.90
38550;DHT22;24322;52.004;5.948;2022-09-27T07:27:12;10.20;99.90
38550;DHT22;24322;52.004;5.948;2022-09-27T07:29:38;10.20;99.90
38550;DHT22;24322;52.004;5.948;2022-09-27T07:32:04;10.20;99.90
38550;DHT22;24322;52.004;5.948;2022-09-27T07:34:29;10.10;99.90
38550;DHT22;24322;52.004;5.948;2022-09-27T07:36:57;10.10;99.90
38550;DHT22;24322;52.004;5.948;2022-09-27T07:39:23;10.20;99.90
38550;DHT22;24322;52.004;5.948;2022-09-27T07:41:49;10.30;99.90
38550;DHT22;24322;52.004;5.948;2022-09-27T07:44:14;10.30;99.90
38550;DHT22;24322;52.004;5.948;2022-09-27T07:46:40;10.40;99.90
38550;DHT22;24322;52.004;5.948;2022-09-27T07:49:06;10.40;99.90
38550;DHT22;24322;52.004;5.948;2022-09-27T07:51:32;10.50;99.90
38550;DHT22;24322;52.004;5.948;2022-09-27T07:53:58;10.60;99.90
38550;DHT22;24322;52.004;5.948;2022-09-27T07:56:25;10.60;99.90
38550;DHT22;24322;52.004;5.948;2022-09-27T07:58:51;10.70;99.90
38550;DHT22;24322;52.004;5.948;2022-09-27T08:01:16;10.80;99.90
38550;DHT22;24322;52.004;5.948;2022-09-27T08:03:42;10.80;99.90
38550;DHT22;24322;52.004;5.948;2022-09-27T08:06:09;10.70;99.90
38550;DHT22;24322;52.004;5.948;2022-09-27T08:08:34;10.70;99.90
38550;DHT22;24322;52.004;5.948;2022-09-27T08:11:00;10.80;99.90
38550;DHT22;24322;52.004;5.948;2022-09-27T08:13:25;11.00;99.90
38550;DHT22;24322;52.004;5.948;2022-09-27T08:15:51;11.10;99.90
38550;DHT22;24322;52.004;5.948;2022-09-27T08:18:17;11.10;99.90
38550;DHT22;24322;52.004;5.948;2022-09-27T08:20:42;11.20;99.90
38550;DHT22;24322;52.004;5.948;2022-09-27T08:23:08;11.20;99.90
38550;DHT22;24322;52.004;5.948;2022-09-27T08:25:33;11.30;99.90
38550;DHT22;24322;52.004;5.948;2022-09-27T08:28:00;11.30;99.90
38550;DHT22;24322;52.004;5.948;2022-09-27T08:30:29;11.30;99.90
38550;DHT22;24322;52.004;5.948;2022-09-27T08:32:57;11.50;99.90
38550;DHT22;24322;52.004;5.948;2022-09-27T08:35:23;11.60;99.90
38550;DHT22;24322;52.004;5.948;2022-09-27T08:37:52;11.60;99.90
38550;DHT22;24322;52.004;5.948;2022-09-27T08:40:17;11.60;99.90
38550;DHT22;24322;52.004;5.948;2022-09-27T08:42:57;11.60;99.90
38550;DHT22;24322;52.004;5.948;2022-09-27T08:45:28;11.60;99.90
38550;DHT22;24322;52.004;5.948;2022-09-27T08:47:57;11.50;99.90
38550;DHT22;24322;52.004;5.948;2022-09-27T08:50:35;11.40;99.90
38550;DHT22;24322;52.004;5.948;2022-09-27T08:58:02;11.20;99.90
38550;DHT22;24322;52.004;5.948;2022-09-27T09:00:29;11.20;99.90
38550;DHT22;24322;52.004;5.948;2022-09-27T09:02:55;11.20;99.90
38550;DHT22;24322;52.004;5.948;2022-09-27T09:13:01;11.50;99.90
38550;DHT22;24322;52.004;5.948;2022-09-27T09:20:54;11.60;99.90
38550;DHT22;24322;52.004;5.948;2022-09-27T09:23:44;11.60;99.90
38550;DHT22;24322;52.004;5.948;2022-09-27T09:34:16;11.70;99.90
38550;DHT22;24322;52.004;5.948;2022-09-27T09:36:45;11.70;99.90
38550;DHT22;24322;52.004;5.948;2022-09-27T09:39:13;11.70;99.90
38550;DHT22;24322;52.004;5.948;2022-09-27T09:41:42;11.80;99.90
38550;DHT22;24322;52.004;5.948;2022-09-27T09:44:16;11.60;99.90
38550;DHT22;24322;52.004;5.948;2022-09-27T09:46:50;11.50;99.90
38550;DHT22;24322;52.004;5.948;2022-09-27T09:51:50;11.40;99.90
38550;DHT22;24322;52.004;5.948;2022-09-27T09:54:28;11.30;99.90
38550;DHT22;24322;52.004;5.948;2022-09-27T09:57:15;11.30;99.90
38550;DHT22;24322;52.004;5.948;2022-09-27T09:59:50;11.20;99.90
38550;DHT22;24322;52.004;5.948;2022-09-27T10:02:31;11.10;99.90
38550;DHT22;24322;52.004;5.948;2022-09-27T10:04:57;11.00;99.90
38550;DHT22;24322;52.004;5.948;2022-09-27T10:07:22;11.00;99.90
38550;DHT22;24322;52.004;5.948;2022-09-27T10:09:49;10.90;99.90
38550;DHT22;24322;52.004;5.948;2022-09-27T10:12:15;11.00;99.90
38550;DHT22;24322;52.004;5.948;2022-09-27T10:14:41;11.10;99.90
38550;DHT22;24322;52.004;5.948;2022-09-27T10:17:09;11.00;99.90
38550;DHT22;24322;52.004;5.948;2022-09-27T10:19:35;11.10;99.90
38550;DHT22;24322;52.004;5.948;2022-09-27T10:22:18;11.00;99.90
38550;DHT22;24322;52.004;5.948;2022-09-27T10:25:19;11.10;99.90
38550;DHT22;24322;52.004;5.948;2022-09-27T10:27:45;11.00;99.90
38550;DHT22;24322;52.004;5.948;2022-09-27T10:30:26;11.00;99.90
38550;DHT22;24322;52.004;5.948;2022-09-27T10:32:53;11.00;99.90
38550;DHT22;24322;52.004;5.948;2022-09-27T10:35:32;11.00;99.90
38550;DHT22;24322;52.004;5.948;2022-09-27T10:38:11;11.00;99.90
38550;DHT22;24322;52.004;5.948;2022-09-27T10:40:42;11.00;99.90
38550;DHT22;24322;52.004;5.948;2022-09-27T10:48:31;11.20;99.90
38550;DHT22;24322;52.004;5.948;2022-09-27T10:51:01;11.30;99.90
38550;DHT22;24322;52.004;5.948;2022-09-27T10:53:27;11.20;99.90
38550;DHT22;24322;52.004;5.948;2022-09-27T10:55:53;11.30;99.90
38550;DHT22;24322;52.004;5.948;2022-09-27T10:58:52;11.40;99.90
38550;DHT22;24322;52.004;5.948;2022-09-27T11:01:11;11.40;99.90
38550;DHT22;24322;52.004;5.948;2022-09-27T11:03:38;11.40;99.90
38550;DHT22;24322;52.004;5.948;2022-09-27T11:08:47;11.60;99.90
38550;DHT22;24322;52.004;5.948;2022-09-27T11:13:38;11.70;99.90
38550;DHT22;24322;52.004;5.948;2022-09-27T11:27:43;11.60;99.90
38550;DHT22;24322;52.004;5.948;2022-09-27T11:32:33;11.40;99.90
38550;DHT22;24322;52.004;5.948;2022-09-27T11:40:19;11.40;99.90
38550;DHT22;24322;52.004;5.948;2022-09-27T11:43:01;11.50;99.90
38550;DHT22;24322;52.004;5.948;2022-09-27T11:45:42;11.60;99.90
38550;DHT22;24322;52.004;5.948;2022-09-27T11:48:26;11.70;99.90
38550;DHT22;24322;52.004;5.948;2022-09-27T11:50:58;11.80;99.90
38550;DHT22;24322;52.004;5.948;2022-09-27T11:53:33;12.10;99.90
38550;DHT22;24322;52.004;5.948;2022-09-27T12:01:17;12.20;99.90
38550;DHT22;24322;52.004;5.948;2022-09-27T12:09:04;12.10;99.90
38550;DHT22;24322;52.004;5.948;2022-09-27T12:16:22;11.90;99.90
38550;DHT22;24322;52.004;5.948;2022-09-27T12:18:47;11.90;99.90
38550;DHT22;24322;52.004;5.948;2022-09-27T12:21:14;11.80;99.90
38550;DHT22;24322;52.004;5.948;2022-09-27T12:26:48;11.70;99.90
38550;DHT22;24322;52.004;5.948;2022-09-27T12:29:37;11.80;99.90
38550;DHT22;24322;52.004;5.948;2022-09-27T12:42:11;12.40;99.90
38550;DHT22;24322;52.004;5.948;2022-09-27T12:44:39;12.50;99.90
38550;DHT22;24322;52.004;5.948;2022-09-27T12:52:05;12.50;99.90
38550;DHT22;24322;52.004;5.948;2022-09-27T12:59:55;12.40;99.90
38550;DHT22;24322;52.004;5.948;2022-09-27T13:13:25;12.20;99.90
38550;DHT22;24322;52.004;5.948;2022-09-27T13:15:54;12.10;99.90
38550;DHT22;24322;52.004;5.948;2022-09-27T13:21:03;11.90;99.90
38550;DHT22;24322;52.004;5.948;2022-09-27T13:25:59;11.80;99.90
38550;DHT22;24322;52.004;5.948;2022-09-27T13:30:53;11.50;99.90
38550;DHT22;24322;52.004;5.948;2022-09-27T13:38:29;11.30;99.90
38550;DHT22;24322;52.004;5.948;2022-09-27T13:40:54;11.20;99.90
38550;DHT22;24322;52.004;5.948;2022-09-27T13:46:07;11.00;99.90
38550;DHT22;24322;52.004;5.948;2022-09-27T13:53:55;10.90;99.90
38550;DHT22;24322;52.004;5.948;2022-09-27T13:56:45;10.90;99.90
38550;DHT22;24322;52.004;5.948;2022-09-27T13:59:20;10.90;99.90
38550;DHT22;24322;52.004;5.948;2022-09-27T14:01:51;10.90;99.90
38550;DHT22;24322;52.004;5.948;2022-09-27T14:04:25;10.90;99.90
38550;DHT22;24322;52.004;5.948;2022-09-27T14:06:53;10.90;99.90
38550;DHT22;24322;52.004;5.948;2022-09-27T14:09:23;10.90;99.90
38550;DHT22;24322;52.004;5.948;2022-09-27T14:11:51;11.00;99.90
38550;DHT22;24322;52.004;5.948;2022-09-27T14:14:18;11.10;99.90
38550;DHT22;24322;52.004;5.948;2022-09-27T14:16:46;11.30;99.90
38550;DHT22;24322;52.004;5.948;2022-09-27T14:19:14;11.40;99.90
38550;DHT22;24322;52.004;5.948;2022-09-27T14:21:41;11.40;99.90
38550;DHT22;24322;52.004;5.948;2022-09-27T14:26:44;11.50;99.90
38550;DHT22;24322;52.004;5.948;2022-09-27T14:29:20;11.50;99.90
38550;DHT22;24322;52.004;5.948;2022-09-27T14:31:46;11.50;99.90
38550;DHT22;24322;52.004;5.948;2022-09-27T14:34:16;11.50;99.90
38550;DHT22;24322;52.004;5.948;2022-09-27T14:36:42;11.50;99.90
38550;DHT22;24322;52.004;5.948;2022-09-27T14:39:30;11.50;99.90
38550;DHT22;24322;52.004;5.948;2022-09-27T14:41:57;11.50;99.90
38550;DHT22;24322;52.004;5.948;2022-09-27T14:44:23;11.60;99.90
38550;DHT22;24322;52.004;5.948;2022-09-27T14:47:06;11.60;99.90
38550;DHT22;24322;52.004;5.948;2022-09-27T14:49:31;11.60;99.90
38550;DHT22;24322;52.004;5.948;2022-09-27T14:51:57;11.60;99.90
38550;DHT22;24322;52.004;5.948;2022-09-27T14:54:24;11.70;99.90
38550;DHT22;24322;52.004;5.948;2022-09-27T14:56:51;11.70;99.90
38550;DHT22;24322;52.004;5.948;2022-09-27T14:59:28;11.70;99.90
38550;DHT22;24322;52.004;5.948;2022-09-27T15:02:00;11.70;99.90
38550;DHT22;24322;52.004;5.948;2022-09-27T15:04:28;11.70;99.90
38550;DHT22;24322;52.004;5.948;2022-09-27T15:06:56;11.70;99.90
38550;DHT22;24322;52.004;5.948;2022-09-27T15:09:21;11.80;99.90
38550;DHT22;24322;52.004;5.948;2022-09-27T15:11:48;11.80;99.90
38550;DHT22;24322;52.004;5.948;2022-09-27T15:14:17;11.80;99.90
38550;DHT22;24322;52.004;5.948;2022-09-27T15:16:44;11.80;99.90
38550;DHT22;24322;52.004;5.948;2022-09-27T15:19:13;11.80;99.90
38550;DHT22;24322;52.004;5.948;2022-09-27T15:21:39;11.80;99.90
38550;DHT22;24322;52.004;5.948;2022-09-27T15:24:05;11.80;99.90
38550;DHT22;24322;52.004;5.948;2022-09-27T15:26:50;11.80;99.90
38550;DHT22;24322;52.004;5.948;2022-09-27T15:29:19;11.80;99.90
38550;DHT22;24322;52.004;5.948;2022-09-27T15:31:55;11.90;99.90
38550;DHT22;24322;52.004;5.948;2022-09-27T15:34:22;11.90;99.90
38550;DHT22;24322;52.004;5.948;2022-09-27T15:36:50;11.80;99.90
38550;DHT22;24322;52.004;5.948;2022-09-27T15:39:18;11.90;99.90
38550;DHT22;24322;52.004;5.948;2022-09-27T15:49:52;11.60;99.90
38550;DHT22;24322;52.004;5.948;2022-09-27T15:52:52;11.60;99.90
38550;DHT22;24322;52.004;5.948;2022-09-27T15:55:10;11.60;99.90
38550;DHT22;24322;52.004;5.948;2022-09-27T15:57:35;11.60;99.90
38550;DHT22;24322;52.004;5.948;2022-09-27T16:00:02;11.50;99.90
38550;DHT22;24322;52.004;5.948;2022-09-27T16:02:28;11.50;99.90
38550;DHT22;24322;52.004;5.948;2022-09-27T16:04:53;11.50;99.90
38550;DHT22;24322;52.004;5.948;2022-09-27T16:07:19;11.40;99.90
38550;DHT22;24322;52.004;5.948;2022-09-27T16:09:44;11.40;99.90
38550;DHT22;24322;52.004;5.948;2022-09-27T16:12:11;11.40;99.90
38550;DHT22;24322;52.004;5.948;2022-09-27T16:14:37;11.30;99.90
38550;DHT22;24322;52.004;5.948;2022-09-27T16:17:02;11.20;99.90
38550;DHT22;24322;52.004;5.948;2022-09-27T16:19:28;11.20;99.90
38550;DHT22;24322;52.004;5.948;2022-09-27T16:21:53;11.20;99.90
38550;DHT22;24322;52.004;5.948;2022-09-27T16:24:19;11.20;99.90
38550;DHT22;24322;52.004;5.948;2022-09-27T16:26:45;11.10;99.90
38550;DHT22;24322;52.004;5.948;2022-09-27T16:29:11;11.10;99.90
38550;DHT22;24322;52.004;5.948;2022-09-27T16:31:38;11.10;99.90
38550;DHT22;24322;52.004;5.948;2022-09-27T16:34:03;11.10;99.90
38550;DHT22;24322;52.004;5.948;2022-09-27T16:36:29;11.20;99.90
38550;DHT22;24322;52.004;5.948;2022-09-27T16:38:54;11.20;99.90
38550;DHT22;24322;52.004;5.948;2022-09-27T16:41:20;11.20;99.90
38550;DHT22;24322;52.004;5.948;2022-09-27T16:43:46;11.30;99.90
38550;DHT22;24322;52.004;5.948;2022-09-27T16:46:12;11.20;99.90
38550;DHT22;24322;52.004;5.948;2022-09-27T16:48:40;11.30;99.90
38550;DHT22;24322;52.004;5.948;2022-09-27T16:51:08;11.30;99.90
38550;DHT22;24322;52.004;5.948;2022-09-27T16:53:53;11.30;99.90
38550;DHT22;24322;52.004;5.948;2022-09-27T16:56:19;11.30;99.90
38550;DHT22;24322;52.004;5.948;2022-09-27T16:58:45;11.30;99.90
38550;DHT22;24322;52.004;5.948;2022-09-27T17:01:10;11.30;99.90
38550;DHT22;24322;52.004;5.948;2022-09-27T17:03:36;11.30;99.90
38550;DHT22;24322;52.004;5.948;2022-09-27T17:06:01;11.30;99.90
38550;DHT22;24322;52.004;5.948;2022-09-27T17:08:30;11.40;99.90
38550;DHT22;24322;52.004;5.948;2022-09-27T17:10:55;11.30;99.90
38550;DHT22;24322;52.004;5.948;2022-09-27T17:13:21;11.20;99.90
38550;DHT22;24322;52.004;5.948;2022-09-27T17:15:47;11.10;99.90
38550;DHT22;24322;52.004;5.948;2022-09-27T17:18:13;11.10;99.90
38550;DHT22;24322;52.004;5.948;2022-09-27T17:20:38;11.10;99.90
38550;DHT22;24322;52.004;5.948;2022-09-27T17:23:04;11.00;99.90
38550;DHT22;24322;52.004;5.948;2022-09-27T17:25:30;11.00;99.90
38550;DHT22;24322;52.004;5.948;2022-09-27T17:27:55;11.00;99.90
38550;DHT22;24322;52.004;5.948;2022-09-27T17:30:21;11.00;99.90
38550;DHT22;24322;52.004;5.948;2022-09-27T17:32:47;11.00;99.90
38550;DHT22;24322;52.004;5.948;2022-09-27T17:35:12;11.00;99.90
38550;DHT22;24322;52.004;5.948;2022-09-27T17:37:38;11.00;99.90
38550;DHT22;24322;52.004;5.948;2022-09-27T17:40:03;11.00;99.90
38550;DHT22;24322;52.004;5.948;2022-09-27T17:42:29;11.00;99.90
38550;DHT22;24322;52.004;5.948;2022-09-27T17:44:55;11.00;99.90
38550;DHT22;24322;52.004;5.948;2022-09-27T17:47:20;10.80;99.90
38550;DHT22;24322;52.004;5.948;2022-09-27T17:50:04;10.90;99.90
38550;DHT22;24322;52.004;5.948;2022-09-27T17:52:48;10.70;99.90
38550;DHT22;24322;52.004;5.948;2022-09-27T17:55:14;10.70;99.90
38550;DHT22;24322;52.004;5.948;2022-09-27T17:57:39;10.70;99.90
38550;DHT22;24322;52.004;5.948;2022-09-27T18:00:05;10.60;99.90
38550;DHT22;24322;52.004;5.948;2022-09-27T18:02:31;10.60;99.90
38550;DHT22;24322;52.004;5.948;2022-09-27T18:04:57;10.50;99.90
38550;DHT22;24322;52.004;5.948;2022-09-27T18:07:22;10.60;99.90
38550;DHT22;24322;52.004;5.948;2022-09-27T18:09:48;10.50;99.90
38550;DHT22;24322;52.004;5.948;2022-09-27T18:12:15;10.50;99.90
38550;DHT22;24322;52.004;5.948;2022-09-27T18:14:41;10.40;99.90
38550;DHT22;24322;52.004;5.948;2022-09-27T18:17:07;10.40;99.90
38550;DHT22;24322;52.004;5.948;2022-09-27T18:19:37;10.40;99.90
38550;DHT22;24322;52.004;5.948;2022-09-27T18:22:02;10.50;99.90
38550;DHT22;24322;52.004;5.948;2022-09-27T18:24:28;10.40;99.90
38550;DHT22;24322;52.004;5.948;2022-09-27T18:26:53;10.40;99.90
38550;DHT22;24322;52.004;5.948;2022-09-27T18:29:21;10.40;99.90
38550;DHT22;24322;52.004;5.948;2022-09-27T18:31:47;10.40;99.90
38550;DHT22;24322;52.004;5.948;2022-09-27T18:34:13;10.40;99.90
38550;DHT22;24322;52.004;5.948;2022-09-27T18:36:38;10.40;99.90
38550;DHT22;24322;52.004;5.948;2022-09-27T18:39:10;10.40;99.90
38550;DHT22;24322;52.004;5.948;2022-09-27T18:41:35;10.40;99.90